Time;durP1;ratioP1;P1;durP2;ratioP2;P2;SDS_P1;SDS_P2;PMS_P1;PMS_P2;Temp;Humidity;BMP_temperature;BMP_pressure;BME280_temperature;BME280_humidity;BME280_pressure;Samples;Min_cycle;Max_cycle;Signal;HPM_P1;HPM_P2
2023/02/05 00:02:12;;;;;;;14.63;10.57;;;3.30;1.00;;;;;;5117756;28;20465;-38
2023/02/05 00:04:38;;;;;;;12.80;9.70;;;3.20;1.00;;;;;;5116645;28;20614;-39
2023/02/05 00:07:04;;;;;;;17.23;10.97;;;3.20;1.00;;;;;;5116692;28;20187;-39
2023/02/05 00:09:31;;;;;;;13.93;9.80;;;3.20;1.00;;;;;;5116789;28;20186;-39
2023/02/05 00:11:57;;;;;;;15.73;10.67;;;3.20;1.00;;;;;;5098823;28;20468;-38
2023/02/05 00:14:23;;;;;;;16.57;10.27;;;3.20;1.00;;;;;;5116514;28;20444;-38
2023/02/05 00:16:49;;;;;;;18.13;11.27;;;3.30;1.00;;;;;;5115814;28;20414;-38
2023/02/05 00:19:15;;;;;;;12.50;9.83;;;3.30;1.00;;;;;;5117100;28;20444;-38
2023/02/05 00:21:40;;;;;;;17.67;10.00;;;3.30;1.00;;;;;;5116095;28;20215;-38
2023/02/05 00:24:06;;;;;;;14.93;9.60;;;3.30;1.00;;;;;;5116514;28;20251;-39
2023/02/05 00:26:32;;;;;;;20.30;12.03;;;3.30;1.00;;;;;;5116828;28;20506;-37
2023/02/05 00:28:59;;;;;;;16.40;10.27;;;3.30;1.00;;;;;;5116336;28;20449;-39
2023/02/05 00:31:25;;;;;;;14.47;10.20;;;3.30;1.00;;;;;;5115669;28;20445;-40
2023/02/05 00:33:51;;;;;;;13.17;10.20;;;3.30;1.00;;;;;;5114423;27;20180;-40
2023/02/05 00:36:18;;;;;;;23.23;11.70;;;3.30;1.00;;;;;;5116063;28;20180;-38
2023/02/05 00:38:44;;;;;;;14.67;10.10;;;3.30;1.00;;;;;;5116340;28;20545;-39
2023/02/05 00:41:10;;;;;;;14.40;11.03;;;3.40;1.00;;;;;;5114705;28;21053;-39
2023/02/05 00:43:37;;;;;;;15.43;10.50;;;3.30;1.00;;;;;;5115044;28;20433;-39
2023/02/05 00:46:03;;;;;;;14.30;11.13;;;3.30;1.00;;;;;;5115529;28;20418;-39
2023/02/05 00:48:28;;;;;;;16.80;10.50;;;3.40;1.00;;;;;;5115423;28;20440;-39
2023/02/05 00:50:54;;;;;;;15.90;10.80;;;3.40;1.00;;;;;;5115178;28;20324;-38
2023/02/05 00:53:20;;;;;;;20.47;11.00;;;3.40;1.00;;;;;;5115406;28;20506;-39
2023/02/05 00:55:46;;;;;;;17.70;11.23;;;3.40;1.00;;;;;;5111138;28;20176;-40
2023/02/05 00:58:12;;;;;;;19.40;11.20;;;3.40;1.00;;;;;;5096545;28;20662;-39
2023/02/05 01:00:38;;;;;;;13.70;10.40;;;3.40;1.00;;;;;;5100801;28;20203;-39
2023/02/05 01:03:03;;;;;;;13.87;10.63;;;3.40;1.00;;;;;;5114752;28;20429;-40
2023/02/05 01:05:29;;;;;;;17.40;10.90;;;3.40;1.00;;;;;;5115055;28;20437;-39
2023/02/05 01:07:55;;;;;;;14.30;9.70;;;3.40;1.00;;;;;;5116251;28;20172;-39
2023/02/05 01:10:21;;;;;;;13.47;10.10;;;3.30;1.00;;;;;;5116653;28;20194;-38
2023/02/05 01:12:50;;;;;;;17.70;10.57;;;3.30;1.00;;;;;;5118287;28;20772;-39
2023/02/05 01:15:16;;;;;;;12.70;10.60;;;3.20;1.00;;;;;;5120716;28;20764;-38
2023/02/05 01:17:42;;;;;;;14.30;9.63;;;3.20;1.00;;;;;;5119422;28;20414;-39
2023/02/05 01:20:09;;;;;;;12.67;9.40;;;3.20;1.00;;;;;;5121538;28;20203;-40
2023/02/05 01:22:35;;;;;;;13.90;9.90;;;3.20;1.00;;;;;;5120929;28;20176;-39
2023/02/05 01:25:01;;;;;;;13.30;9.87;;;3.20;1.00;;;;;;5119572;28;20492;-39
2023/02/05 01:27:26;;;;;;;17.77;10.43;;;3.20;1.00;;;;;;5120029;28;20175;-40
2023/02/05 01:29:52;;;;;;;19.03;10.67;;;3.20;1.00;;;;;;5120590;28;20184;-37
2023/02/05 01:32:18;;;;;;;16.70;9.90;;;3.20;1.00;;;;;;5120828;28;20511;-39
2023/02/05 01:34:44;;;;;;;18.20;11.00;;;3.20;1.00;;;;;;5120887;28;20180;-40
2023/02/05 01:37:10;;;;;;;15.97;10.20;;;3.10;1.00;;;;;;5112475;28;20304;-37
2023/02/05 01:39:36;;;;;;;14.20;10.00;;;3.10;1.00;;;;;;5099514;28;20544;-38
2023/02/05 01:42:03;;;;;;;13.57;10.67;;;3.10;1.00;;;;;;5098816;28;20470;-37
2023/02/05 01:44:30;;;;;;;14.93;10.93;;;3.10;1.00;;;;;;5098886;28;20820;-37
2023/02/05 01:46:55;;;;;;;15.37;10.10;;;3.10;1.00;;;;;;5098839;28;20817;-37
2023/02/05 01:49:31;;;;;;;13.00;9.33;;;3.10;1.00;;;;;;5100511;28;20541;-37
2023/02/05 01:52:00;;;;;;;17.87;10.80;;;3.10;1.00;;;;;;5098988;28;20461;-37
2023/02/05 01:54:28;;;;;;;17.57;11.47;;;3.00;1.00;;;;;;5097577;28;20430;-39
2023/02/05 01:57:02;;;;;;;18.80;10.90;;;3.00;1.00;;;;;;5097452;28;20426;-38
2023/02/05 01:59:30;;;;;;;17.30;12.07;;;3.00;1.00;;;;;;5099252;28;20680;-38
2023/02/05 02:01:59;;;;;;;17.10;13.30;;;3.00;1.00;;;;;;5097971;28;20615;-37
2023/02/05 02:04:52;;;;;;;16.63;12.10;;;3.00;1.00;;;;;;5097424;28;20458;-38
2023/02/05 02:07:20;;;;;;;15.37;11.10;;;3.00;1.00;;;;;;5096217;28;20742;-38
2023/02/05 02:09:47;;;;;;;15.87;12.10;;;3.00;1.00;;;;;;5097175;28;20423;-38
2023/02/05 02:12:16;;;;;;;15.10;10.70;;;2.90;1.00;;;;;;5098718;28;20467;-39
2023/02/05 02:14:44;;;;;;;15.20;11.40;;;2.90;1.00;;;;;;5098140;28;20426;-37
2023/02/05 02:17:11;;;;;;;18.87;11.90;;;2.90;1.00;;;;;;5098008;28;20422;-37
2023/02/05 02:19:41;;;;;;;17.40;10.47;;;2.90;1.00;;;;;;5098413;28;20839;-37
2023/02/05 02:22:28;;;;;;;14.60;10.37;;;2.90;1.00;;;;;;5099580;28;20580;-38
2023/02/05 02:25:00;;;;;;;13.23;11.90;;;2.90;1.00;;;;;;5098227;28;20500;-38
2023/02/05 02:27:38;;;;;;;12.03;10.77;;;2.90;1.00;;;;;;5078566;28;20435;-37
2023/02/05 02:30:20;;;;;;;17.20;11.10;;;2.90;1.00;;;;;;5078926;28;20493;-38
2023/02/05 02:32:50;;;;;;;16.10;10.90;;;2.90;1.00;;;;;;5110002;28;20421;-37
2023/02/05 02:35:42;;;;;;;16.70;10.03;;;2.90;1.00;;;;;;5120762;28;20516;-37
2023/02/05 02:38:12;;;;;;;16.53;10.53;;;2.80;1.00;;;;;;5100256;28;20446;-38
2023/02/05 02:40:45;;;;;;;14.43;9.60;;;2.80;1.00;;;;;;5099468;28;20522;-39
2023/02/05 02:43:45;;;;;;;15.30;9.50;;;2.80;31.50;;;;;;5097433;28;20454;-38
2023/02/05 02:46:21;;;;;;;14.70;10.07;;;2.80;83.60;;;;;;5098138;28;20415;-39
2023/02/05 02:48:50;;;;;;;16.20;10.77;;;2.90;58.20;;;;;;5098944;28;20456;-38
2023/02/05 02:51:17;;;;;;;13.37;10.03;;;2.90;50.80;;;;;;5096211;28;20824;-38
2023/02/05 02:53:46;;;;;;;13.70;9.80;;;2.90;45.00;;;;;;5096580;28;20423;-38
2023/02/05 02:56:13;;;;;;;16.80;9.00;;;2.90;48.40;;;;;;5098932;28;20723;-38
2023/02/05 02:58:42;;;;;;;14.47;9.83;;;3.00;54.10;;;;;;5116686;28;20453;-39
2023/02/05 03:01:09;;;;;;;15.73;9.10;;;3.00;41.90;;;;;;5117638;28;20685;-38
2023/02/05 03:03:37;;;;;;;12.43;9.10;;;3.00;44.20;;;;;;5117105;28;20425;-39
2023/02/05 03:06:05;;;;;;;15.67;8.60;;;3.00;48.60;;;;;;5104892;28;20836;-39
2023/02/05 03:08:51;;;;;;;16.93;8.93;;;3.10;44.00;;;;;;5098397;28;20441;-37
2023/02/05 03:11:17;;;;;;;11.53;8.90;;;3.10;52.20;;;;;;5095707;28;20422;-38
2023/02/05 03:13:43;;;;;;;14.53;8.97;;;3.10;42.50;;;;;;5097209;28;20512;-38
2023/02/05 03:16:09;;;;;;;14.60;8.30;;;3.10;27.70;;;;;;5096483;28;20312;-38
2023/02/05 03:18:36;;;;;;;12.17;7.37;;;3.10;34.10;;;;;;5095278;28;20903;-39
2023/02/05 03:21:08;;;;;;;12.90;7.23;;;3.10;28.60;;;;;;5096996;28;20500;-39
2023/02/05 03:23:34;;;;;;;11.67;6.73;;;3.10;38.10;;;;;;5096294;28;20426;-46
2023/02/05 03:26:00;;;;;;;12.43;7.00;;;3.10;39.70;;;;;;5097665;28;20449;-38
2023/02/05 03:28:25;;;;;;;8.87;6.90;;;3.20;19.10;;;;;;5097913;28;20196;-38
2023/02/05 03:30:53;;;;;;;16.03;7.13;;;3.20;10.00;;;;;;5098240;28;20180;-39
2023/02/05 03:33:22;;;;;;;12.43;7.13;;;3.20;1.00;;;;;;5096908;28;20253;-39
2023/02/05 03:35:56;;;;;;;16.13;7.70;;;3.20;1.00;;;;;;5097420;28;20516;-38
2023/02/05 03:38:43;;;;;;;10.13;6.23;;;3.20;1.00;;;;;;5096458;28;20440;-38
2023/02/05 03:41:54;;;;;;;15.53;6.50;;;3.20;1.00;;;;;;5097959;28;20466;-38
2023/02/05 03:44:43;;;;;;;14.27;7.20;;;3.20;1.00;;;;;;5096120;28;20433;-39
2023/02/05 03:47:57;;;;;;;11.10;7.07;;;3.20;1.00;;;;;;5098413;28;20464;-38
2023/02/05 03:50:31;;;;;;;12.07;6.40;;;3.10;1.00;;;;;;5084927;28;20462;-38
2023/02/05 03:53:29;;;;;;;13.10;6.33;;;3.10;1.00;;;;;;5115296;28;20438;-38
2023/02/05 03:56:12;;;;;;;12.40;6.77;;;3.10;1.00;;;;;;5115187;28;20665;-40
2023/02/05 03:58:44;;;;;;;10.43;6.77;;;3.10;1.00;;;;;;5115750;28;20459;-38
2023/02/05 04:01:11;;;;;;;10.67;6.57;;;3.10;1.00;;;;;;5115862;28;20777;-38
2023/02/05 04:03:37;;;;;;;9.63;7.33;;;3.00;1.00;;;;;;5116626;28;20432;-38
2023/02/05 04:06:03;;;;;;;16.93;6.97;;;3.00;1.00;;;;;;5117461;28;20418;-37
2023/02/05 04:08:29;;;;;;;11.87;6.40;;;2.90;1.00;;;;;;5116678;28;20275;-38
2023/02/05 04:10:55;;;;;;;13.80;6.27;;;2.90;1.00;;;;;;5117043;28;20402;-38
2023/02/05 04:13:20;;;;;;;14.40;6.60;;;2.80;1.00;;;;;;5107095;28;20442;-39
2023/02/05 04:15:50;;;;;;;12.70;7.40;;;2.80;1.00;;;;;;5097191;28;20413;-38
2023/02/05 04:18:16;;;;;;;11.70;6.33;;;2.70;1.00;;;;;;5106966;28;20446;-38
2023/02/05 04:20:42;;;;;;;14.40;7.20;;;2.60;1.00;;;;;;5112029;28;20477;-40
2023/02/05 04:23:08;;;;;;;11.07;7.10;;;2.60;56.40;;;;;;5112892;28;20715;-39
2023/02/05 04:25:36;;;;;;;16.83;7.80;;;2.60;85.70;;;;;;5117435;28;20462;-38
2023/02/05 04:28:01;;;;;;;10.97;6.50;;;2.50;96.40;;;;;;5117877;28;20216;-38
2023/02/05 04:30:27;;;;;;;9.93;7.50;;;2.50;94.50;;;;;;5116265;28;20433;-38
2023/02/05 04:32:53;;;;;;;14.00;7.30;;;2.50;93.40;;;;;;5115873;28;20179;-38
2023/02/05 04:35:18;;;;;;;11.43;7.20;;;2.40;99.90;;;;;;5116290;28;20550;-38
2023/02/05 04:37:44;;;;;;;11.67;6.70;;;2.40;72.40;;;;;;5116474;28;20257;-38
2023/02/05 04:40:10;;;;;;;17.23;6.57;;;2.40;46.70;;;;;;5116499;28;20307;-37
2023/02/05 04:42:35;;;;;;;9.60;6.97;;;2.30;21.30;;;;;;5100264;28;20184;-38
2023/02/05 04:45:01;;;;;;;15.00;7.97;;;2.30;19.90;;;;;;5099547;28;20429;-38
2023/02/05 04:47:29;;;;;;;12.63;7.03;;;2.30;1.00;;;;;;5115952;28;20200;-40
2023/02/05 04:49:54;;;;;;;13.03;7.10;;;2.30;1.00;;;;;;5116087;28;20833;-38
2023/02/05 04:52:20;;;;;;;10.07;7.47;;;2.20;1.00;;;;;;5117046;28;20481;-38
2023/02/05 04:54:46;;;;;;;15.90;8.53;;;2.20;1.00;;;;;;5117258;28;20194;-39
2023/02/05 04:57:11;;;;;;;12.63;7.40;;;2.10;1.00;;;;;;5117064;28;20170;-39
2023/02/05 04:59:37;;;;;;;9.63;7.00;;;2.10;1.00;;;;;;5117061;28;20179;-41
2023/02/05 05:02:02;;;;;;;13.83;7.67;;;2.10;26.10;;;;;;5116030;28;20196;-38
2023/02/05 05:04:28;;;;;;;12.83;7.37;;;2.10;36.50;;;;;;5117608;28;20252;-38
2023/02/05 05:06:54;;;;;;;13.47;8.63;;;2.10;54.30;;;;;;5115352;28;20195;-38
2023/02/05 05:09:23;;;;;;;11.30;10.17;;;2.10;93.70;;;;;;5117262;28;20191;-37
2023/02/05 05:11:50;;;;;;;20.20;11.83;;;2.10;99.90;;;;;;5104230;28;20180;-38
2023/02/05 05:14:16;;;;;;;11.77;7.87;;;2.10;99.90;;;;;;5096726;28;20542;-38
2023/02/05 05:16:42;;;;;;;12.90;7.70;;;2.20;99.90;;;;;;5096092;28;20453;-38
2023/02/05 05:19:07;;;;;;;16.87;10.80;;;4.80;1.00;;;;;;5096021;28;20188;-38
2023/02/05 05:21:33;;;;;;;16.53;12.17;;;6.00;1.00;;;;;;5095259;28;20215;-39
2023/02/05 05:23:58;;;;;;;16.17;11.00;;;6.40;1.00;;;;;;5095144;28;20238;-41
2023/02/05 05:26:24;;;;;;;20.83;11.23;;;5.90;1.00;;;;;;5096151;28;20179;-39
2023/02/05 05:28:54;;;;;;;15.27;11.43;;;5.30;1.00;;;;;;5096685;28;20184;-38
2023/02/05 05:31:20;;;;;;;15.77;10.40;;;4.80;1.00;;;;;;5096049;28;20191;-39
2023/02/05 05:33:46;;;;;;;14.10;10.10;;;4.40;1.00;;;;;;5096722;28;20430;-38
2023/02/05 05:36:12;;;;;;;19.00;11.40;;;4.00;1.00;;;;;;5097069;28;20275;-38
2023/02/05 05:38:38;;;;;;;13.53;10.60;;;3.70;1.00;;;;;;5098769;28;20758;-38
2023/02/05 05:43:48;;;;;;;15.00;9.70;;;3.20;99.90;;;;;;5096963;28;20237;-39
2023/02/05 05:46:22;;;;;;;11.77;9.77;;;3.00;99.90;;;;;;5105642;28;20417;-38
2023/02/05 05:48:56;;;;;;;12.80;10.23;;;2.90;65.30;;;;;;5118160;28;20511;-38
2023/02/05 05:51:24;;;;;;;12.07;10.67;;;2.80;37.80;;;;;;5119747;28;20517;-38
2023/02/05 05:53:50;;;;;;;15.50;11.03;;;2.80;13.50;;;;;;5116181;28;20432;-38
2023/02/05 05:56:16;;;;;;;18.47;12.43;;;2.70;1.00;;;;;;5118207;28;20445;-38
2023/02/05 05:58:42;;;;;;;16.90;11.37;;;2.70;1.00;;;;;;5119514;28;20873;-38
2023/02/05 06:01:09;;;;;;;13.93;11.00;;;2.60;11.10;;;;;;5120583;28;20792;-38
2023/02/05 06:03:34;;;;;;;14.10;10.67;;;2.60;22.00;;;;;;5119730;28;20414;-38
2023/02/05 06:06:04;;;;;;;17.63;11.17;;;2.60;36.20;;;;;;5118753;28;20432;-38
2023/02/05 06:08:31;;;;;;;16.27;11.27;;;2.60;44.40;;;;;;5119926;28;20227;-38
2023/02/05 06:10:57;;;;;;;13.87;10.00;;;2.60;28.00;;;;;;5118847;28;20435;-38
2023/02/05 06:13:23;;;;;;;11.00;9.47;;;2.60;31.20;;;;;;5119865;28;20436;-38
2023/02/05 06:15:49;;;;;;;16.00;10.33;;;2.60;13.70;;;;;;5119074;28;20176;-38
2023/02/05 06:18:21;;;;;;;11.37;9.97;;;2.50;35.80;;;;;;5120016;28;20430;-39
2023/02/05 06:20:47;;;;;;;13.80;10.33;;;2.50;50.60;;;;;;5120818;28;20300;-38
2023/02/05 06:23:12;;;;;;;12.93;9.27;;;2.50;44.70;;;;;;5120201;28;20449;-38
2023/02/05 06:25:38;;;;;;;12.90;9.60;;;2.50;44.80;;;;;;5119803;28;20593;-38
2023/02/05 06:28:04;;;;;;;21.30;10.47;;;2.50;25.30;;;;;;5120369;28;20557;-39
2023/02/05 06:30:30;;;;;;;12.17;9.07;;;2.50;43.10;;;;;;5120108;28;20183;-39
2023/02/05 06:32:55;;;;;;;13.10;9.87;;;2.50;42.60;;;;;;5119440;28;20882;-38
2023/02/05 06:35:21;;;;;;;15.10;10.10;;;2.50;44.80;;;;;;5119173;28;20176;-39
2023/02/05 06:37:47;;;;;;;14.50;10.40;;;2.40;64.00;;;;;;5119463;28;20511;-38
2023/02/05 06:40:14;;;;;;;11.90;9.73;;;2.40;86.00;;;;;;5119116;28;20223;-38
2023/02/05 06:42:40;;;;;;;14.33;10.40;;;2.40;99.90;;;;;;5119104;28;20194;-38
2023/02/05 06:45:06;;;;;;;18.17;11.10;;;2.40;99.90;;;;;;5119443;28;20405;-39
2023/02/05 06:47:31;;;;;;;14.57;10.83;;;2.40;99.90;;;;;;5118881;28;20175;-39
2023/02/05 06:49:57;;;;;;;12.30;10.73;;;2.40;99.90;;;;;;5118686;28;20539;-38
2023/02/05 06:52:23;;;;;;;16.43;10.20;;;2.40;99.90;;;;;;5119772;28;20172;-37
2023/02/05 06:54:48;;;;;;;15.83;10.97;;;2.50;99.90;;;;;;5118741;28;20464;-38
2023/02/05 06:57:14;;;;;;;17.63;10.90;;;2.50;99.90;;;;;;5119873;28;20168;-39
2023/02/05 06:59:39;;;;;;;14.00;12.13;;;2.60;99.90;;;;;;5120278;28;20186;-38
2023/02/05 07:02:05;;;;;;;14.40;10.33;;;2.60;99.90;;;;;;5119788;28;20446;-36
2023/02/05 07:04:31;;;;;;;20.40;13.07;;;2.60;99.90;;;;;;5118542;28;20244;-37
2023/02/05 07:06:57;;;;;;;16.27;11.17;;;2.60;99.90;;;;;;5116971;28;20209;-37
2023/02/05 07:09:23;;;;;;;17.50;12.13;;;2.60;99.90;;;;;;5114964;28;20179;-37
2023/02/05 07:11:49;;;;;;;13.03;10.27;;;2.60;99.90;;;;;;5116552;28;20508;-37
2023/02/05 07:14:14;;;;;;;12.73;10.83;;;2.60;99.90;;;;;;5117886;28;20575;-37
2023/02/05 07:16:40;;;;;;;13.97;11.20;;;2.60;99.90;;;;;;5117529;28;20187;-37
2023/02/05 07:19:06;;;;;;;20.20;13.00;;;2.60;99.90;;;;;;5117325;28;20180;-38
2023/02/05 07:21:31;;;;;;;23.70;11.57;;;2.70;99.90;;;;;;5118449;28;20207;-38
2023/02/05 07:23:57;;;;;;;12.30;10.30;;;2.80;99.90;;;;;;5116901;28;20310;-38
2023/02/05 07:26:23;;;;;;;13.30;11.90;;;2.80;99.90;;;;;;5117866;28;20486;-37
2023/02/05 07:28:49;;;;;;;13.30;9.83;;;2.80;99.90;;;;;;5116682;28;20431;-37
2023/02/05 07:31:17;;;;;;;18.13;11.37;;;2.90;99.90;;;;;;5116668;28;20172;-36
2023/02/05 07:33:44;;;;;;;14.77;11.17;;;2.90;99.90;;;;;;5117097;28;20183;-37
2023/02/05 07:36:15;;;;;;;15.40;10.80;;;2.90;99.90;;;;;;5116207;28;20402;-37
2023/02/05 07:38:41;;;;;;;17.17;11.87;;;2.90;99.90;;;;;;5115856;28;20417;-39
2023/02/05 07:41:08;;;;;;;13.30;10.23;;;3.00;99.90;;;;;;5114844;28;20487;-37
2023/02/05 07:43:34;;;;;;;13.50;10.90;;;3.00;99.90;;;;;;5112734;28;20735;-37
2023/02/05 07:46:02;;;;;;;14.90;10.57;;;3.00;99.90;;;;;;5113907;28;20532;-38
2023/02/05 07:48:28;;;;;;;16.13;11.60;;;3.10;99.90;;;;;;5112209;28;20414;-38
2023/02/05 07:50:54;;;;;;;12.73;10.53;;;3.10;96.00;;;;;;5114244;28;20409;-37
2023/02/05 07:53:20;;;;;;;15.60;11.13;;;3.10;93.70;;;;;;5113436;28;20432;-38
2023/02/05 07:55:46;;;;;;;14.20;10.57;;;3.10;3.20;;;;;;5114935;28;20174;-40
2023/02/05 07:58:11;;;;;;;17.70;11.40;;;3.10;1.00;;;;;;5115746;28;20462;-39
2023/02/05 08:00:37;;;;;;;15.80;11.93;;;3.10;5.60;;;;;;5115302;28;20521;-39
2023/02/05 08:03:03;;;;;;;11.77;9.67;;;3.10;8.00;;;;;;5114617;28;20279;-38
2023/02/05 08:05:29;;;;;;;14.00;11.70;;;3.10;1.00;;;;;;5115016;28;20430;-39
2023/02/05 08:07:54;;;;;;;16.83;11.30;;;3.20;24.00;;;;;;5115649;28;20164;-40
2023/02/05 08:10:20;;;;;;;15.50;11.13;;;3.10;59.10;;;;;;5116060;28;20499;-38
2023/02/05 08:12:46;;;;;;;18.37;11.60;;;3.20;99.40;;;;;;5116655;28;20244;-38
2023/02/05 08:15:12;;;;;;;13.77;10.90;;;3.30;95.00;;;;;;5115963;28;20182;-38
2023/02/05 08:17:38;;;;;;;17.77;11.47;;;3.30;59.40;;;;;;5114693;28;20418;-39
2023/02/05 08:20:06;;;;;;;13.30;10.40;;;3.40;37.50;;;;;;5116596;28;20410;-38
2023/02/05 08:22:36;;;;;;;16.60;11.37;;;3.40;45.00;;;;;;5117224;28;20279;-40
2023/02/05 08:25:04;;;;;;;12.67;9.70;;;3.50;25.30;;;;;;5118680;28;20446;-37
2023/02/05 08:27:31;;;;;;;11.70;9.33;;;3.50;1.00;;;;;;5117945;28;20428;-38
2023/02/05 08:29:57;;;;;;;14.23;10.23;;;3.50;1.00;;;;;;5118028;28;20478;-37
2023/02/05 08:32:22;;;;;;;15.40;11.90;;;3.60;1.00;;;;;;5118093;28;20398;-38
2023/02/05 08:34:48;;;;;;;15.00;11.80;;;3.70;1.00;;;;;;5116157;28;20256;-39
2023/02/05 08:37:13;;;;;;;15.40;10.60;;;3.80;1.00;;;;;;5116860;28;20273;-38
2023/02/05 08:39:39;;;;;;;18.57;13.17;;;3.80;1.00;;;;;;5116577;28;20275;-38
2023/02/05 08:42:05;;;;;;;22.80;14.13;;;3.90;1.00;;;;;;5116894;28;20235;-39
2023/02/05 08:44:30;;;;;;;14.40;10.90;;;3.90;1.00;;;;;;5116384;28;20217;-38
2023/02/05 08:46:56;;;;;;;13.47;9.20;;;4.00;99.90;;;;;;5116446;28;20240;-38
2023/02/05 08:49:22;;;;;;;13.43;10.57;;;4.00;99.90;;;;;;5115345;28;20190;-37
2023/02/05 08:51:48;;;;;;;18.03;14.60;;;4.00;99.90;;;;;;5115073;28;20180;-38
2023/02/05 08:54:14;;;;;;;24.70;15.00;;;4.00;99.90;;;;;;5115128;28;20454;-38
2023/02/05 08:56:40;;;;;;;25.20;19.03;;;4.00;99.90;;;;;;5115405;28;20703;-37
2023/02/05 08:59:07;;;;;;;28.10;20.10;;;4.00;99.90;;;;;;5115020;28;20440;-38
2023/02/05 09:01:36;;;;;;;22.33;17.20;;;4.00;99.90;;;;;;5115933;28;20552;-37
2023/02/05 09:04:03;;;;;;;16.63;14.03;;;4.10;99.90;;;;;;5115469;28;20452;-38
2023/02/05 09:06:28;;;;;;;115.77;68.33;;;4.10;99.90;;;;;;5116402;28;20417;-39
2023/02/05 09:08:54;;;;;;;41.80;27.43;;;4.10;99.90;;;;;;5115728;28;20418;-38
2023/02/05 09:11:21;;;;;;;242.67;127.03;;;4.20;99.90;;;;;;5114649;28;20176;-40
2023/02/05 09:13:47;;;;;;;177.13;95.80;;;4.30;18.90;;;;;;5115943;28;20474;-39
2023/02/05 09:16:12;;;;;;;260.00;142.87;;;4.30;1.00;;;;;;5115234;28;20467;-37
2023/02/05 09:18:38;;;;;;;66.80;42.30;;;4.40;1.00;;;;;;5115782;28;20565;-38
2023/02/05 09:21:08;;;;;;;40.33;27.30;;;4.30;1.00;;;;;;5113922;28;20683;-39
2023/02/05 09:23:34;;;;;;;13.60;9.80;;;4.30;1.00;;;;;;5112853;28;20176;-37
2023/02/05 09:26:00;;;;;;;18.17;10.80;;;4.20;99.90;;;;;;5113566;28;20497;-37
2023/02/05 09:28:25;;;;;;;12.10;7.73;;;4.10;99.90;;;;;;5113767;28;20176;-37
2023/02/05 09:30:51;;;;;;;13.93;10.40;;;4.10;99.90;;;;;;5113126;28;20555;-39
2023/02/05 09:33:17;;;;;;;18.07;12.03;;;4.00;99.90;;;;;;5111883;28;20459;-37
2023/02/05 09:35:43;;;;;;;10.63;8.40;;;4.00;1.00;;;;;;5115934;28;20197;-38
2023/02/05 09:38:13;;;;;;;12.57;8.13;;;4.00;1.00;;;;;;5118218;28;20884;-37
2023/02/05 09:40:54;;;;;;;8.50;7.33;;;4.00;1.00;;;;;;5115423;28;20976;-37
2023/02/05 09:43:40;;;;;;;13.00;7.10;;;4.00;1.00;;;;;;5116516;28;20737;-38
2023/02/05 09:46:24;;;;;;;15.87;8.27;;;4.10;1.00;;;;;;5084818;28;20424;-37
2023/02/05 09:49:03;;;;;;;17.77;8.13;;;4.10;1.00;;;;;;5119117;28;20446;-38
2023/02/05 09:51:39;;;;;;;12.00;8.43;;;4.10;1.00;;;;;;5117435;28;20477;-38
2023/02/05 09:54:27;;;;;;;10.70;7.80;;;4.00;1.00;;;;;;5119587;28;20421;-37
2023/02/05 09:56:55;;;;;;;12.43;7.60;;;4.00;1.00;;;;;;5119132;28;20500;-37
2023/02/05 09:59:25;;;;;;;13.17;7.97;;;4.00;1.00;;;;;;5118149;28;20486;-39
2023/02/05 10:01:55;;;;;;;11.33;7.07;;;3.90;1.00;;;;;;5116284;28;20476;-39
2023/02/05 10:04:22;;;;;;;11.10;7.60;;;4.00;13.80;;;;;;5100562;28;20426;-38
2023/02/05 10:07:16;;;;;;;15.90;8.20;;;4.00;45.80;;;;;;5095647;28;20407;-37
2023/02/05 10:09:50;;;;;;;13.97;7.00;;;4.00;1.00;;;;;;5097176;28;20446;-37
2023/02/05 10:13:07;;;;;;;16.10;8.20;;;4.00;26.20;;;;;;5095709;28;20561;-37
2023/02/05 10:15:52;;;;;;;16.90;8.20;;;4.00;68.40;;;;;;5063242;28;20500;-38
2023/02/05 10:18:30;;;;;;;11.80;7.53;;;4.00;29.30;;;;;;5094639;28;20744;-38
2023/02/05 10:21:20;;;;;;;13.27;7.13;;;4.00;97.80;;;;;;5094057;28;20560;-38
2023/02/05 10:24:00;;;;;;;12.93;7.80;;;4.00;92.30;;;;;;5095611;28;20462;-39
2023/02/05 10:26:31;;;;;;;16.33;6.80;;;4.00;11.10;;;;;;5093117;28;20410;-38
2023/02/05 10:29:09;;;;;;;9.67;6.30;;;4.10;25.60;;;;;;5095265;28;20418;-38
2023/02/05 10:31:43;;;;;;;11.70;7.90;;;4.10;99.90;;;;;;5093987;28;20436;-39
2023/02/05 10:34:36;;;;;;;14.33;6.97;;;4.10;98.30;;;;;;5095691;28;20768;-38
2023/02/05 10:37:04;;;;;;;11.30;6.60;;;4.10;99.90;;;;;;5096976;28;20411;-38
2023/02/05 10:39:30;;;;;;;10.23;7.47;;;4.20;99.50;;;;;;5094470;28;20656;-37
2023/02/05 10:42:13;;;;;;;11.30;7.90;;;4.30;92.60;;;;;;5093802;28;20824;-37
2023/02/05 10:44:44;;;;;;;10.10;6.60;;;4.30;20.70;;;;;;5092031;28;20242;-38
2023/02/05 10:47:17;;;;;;;11.97;8.40;;;4.30;41.40;;;;;;5096238;28;20490;-40
2023/02/05 10:50:18;;;;;;;11.20;7.47;;;4.30;36.40;;;;;;5095175;28;20718;-38
2023/02/05 10:52:44;;;;;;;12.90;7.30;;;4.40;40.90;;;;;;5061190;28;20514;-37
2023/02/05 10:55:12;;;;;;;13.00;7.60;;;4.30;20.30;;;;;;5096335;28;20403;-38
2023/02/05 10:57:37;;;;;;;13.30;8.03;;;4.40;27.70;;;;;;5094280;28;20183;-38
2023/02/05 11:00:18;;;;;;;10.63;7.33;;;4.40;20.40;;;;;;5096128;28;20880;-38
2023/02/05 11:02:48;;;;;;;13.20;6.90;;;4.50;40.10;;;;;;5095207;28;20260;-40
2023/02/05 11:05:25;;;;;;;15.20;9.03;;;4.50;36.70;;;;;;5095773;28;20868;-38
2023/02/05 11:07:52;;;;;;;15.03;8.27;;;4.50;1.00;;;;;;5094465;28;20402;-39
2023/02/05 11:10:24;;;;;;;11.47;6.50;;;4.50;46.40;;;;;;5095529;28;20410;-39
2023/02/05 11:13:01;;;;;;;9.53;6.93;;;4.60;1.00;;;;;;5094494;28;20783;-39
2023/02/05 11:15:29;;;;;;;10.10;8.33;;;4.70;14.50;;;;;;5094702;28;20653;-38
2023/02/05 11:18:02;;;;;;;16.33;7.70;;;4.70;26.70;;;;;;5094041;28;20471;-38
2023/02/05 11:20:37;;;;;;;12.90;7.30;;;4.70;1.00;;;;;;5094125;28;20453;-38
2023/02/05 11:23:21;;;;;;;11.93;6.50;;;4.60;1.00;;;;;;5094438;28;20528;-38
2023/02/05 11:25:58;;;;;;;12.43;6.50;;;4.50;40.20;;;;;;5094597;28;20479;-38
2023/02/05 11:28:28;;;;;;;5.13;4.20;;;4.50;97.50;;;;;;5092242;28;20423;-39
2023/02/05 11:30:55;;;;;;;13.43;10.10;;;5.40;1.00;;;;;;5093372;28;20497;-38
2023/02/05 11:33:20;;;;;;;10.73;9.00;;;6.60;1.00;;;;;;5093073;28;20465;-38
2023/02/05 11:36:04;;;;;;;14.90;8.20;;;6.50;1.00;;;;;;5093671;28;20426;-37
2023/02/05 11:38:45;;;;;;;11.23;8.47;;;6.30;1.00;;;;;;5095560;28;20246;-39
2023/02/05 11:41:13;;;;;;;10.30;6.60;;;5.90;99.90;;;;;;5092972;28;20576;-39
2023/02/05 11:43:49;;;;;;;10.53;6.27;;;5.70;1.00;;;;;;5092783;28;20427;-40
2023/02/05 11:46:18;;;;;;;9.80;6.93;;;5.50;99.90;;;;;;5094822;28;20406;-39
2023/02/05 11:48:53;;;;;;;10.50;6.50;;;5.30;1.00;;;;;;5093675;28;20452;-39
2023/02/05 11:51:41;;;;;;;10.57;7.97;;;5.30;1.00;;;;;;5095598;28;20414;-38
2023/02/05 11:54:20;;;;;;;12.03;8.13;;;5.10;1.00;;;;;;5096390;28;20430;-39
2023/02/05 11:57:21;;;;;;;10.13;7.93;;;4.90;1.00;;;;;;5094867;28;20512;-37
2023/02/05 12:00:14;;;;;;;11.10;7.37;;;4.80;43.60;;;;;;5017047;28;20432;-38
2023/02/05 12:02:41;;;;;;;15.70;7.53;;;4.90;91.10;;;;;;5094063;28;20843;-40
2023/02/05 12:05:18;;;;;;;8.30;6.60;;;4.90;59.70;;;;;;5095579;28;20410;-38
2023/02/05 12:08:23;;;;;;;10.50;7.97;;;4.90;39.80;;;;;;5096084;28;20548;-38
2023/02/05 12:11:00;;;;;;;11.43;7.07;;;4.90;1.00;;;;;;5094706;28;20421;-38
2023/02/05 12:13:44;;;;;;;14.50;6.70;;;4.90;72.70;;;;;;5095974;28;20786;-39
2023/02/05 12:16:15;;;;;;;8.73;5.90;;;5.00;99.90;;;;;;5094897;28;20501;-37
2023/02/05 12:18:54;;;;;;;8.17;5.97;;;4.90;99.90;;;;;;5094004;28;20418;-40
2023/02/05 12:21:43;;;;;;;10.50;5.63;;;5.00;99.90;;;;;;5092619;28;21002;-38
2023/02/05 12:24:37;;;;;;;8.13;5.27;;;5.00;99.90;;;;;;5091579;28;20454;-37
2023/02/05 12:27:29;;;;;;;9.70;5.17;;;5.00;99.90;;;;;;5094890;28;20440;-39
2023/02/05 12:30:03;;;;;;;6.30;5.20;;;4.90;99.90;;;;;;5095809;28;20518;-38
2023/02/05 12:32:52;;;;;;;7.43;5.20;;;4.90;99.90;;;;;;5094251;28;20414;-38
2023/02/05 12:35:31;;;;;;;6.57;5.50;;;4.80;99.90;;;;;;5081706;28;20434;-39
2023/02/05 12:38:42;;;;;;;5.40;4.90;;;4.80;99.90;;;;;;5091735;28;20931;-40
2023/02/05 12:41:38;;;;;;;6.40;5.80;;;4.80;99.90;;;;;;5039721;28;20563;-38
2023/02/05 12:44:11;;;;;;;11.93;7.03;;;4.80;99.90;;;;;;5092782;28;20433;-39
2023/02/05 12:46:54;;;;;;;7.60;6.23;;;4.80;99.90;;;;;;5094347;28;20410;-38
2023/02/05 12:49:32;;;;;;;11.57;6.87;;;4.80;99.90;;;;;;5092314;28;20452;-39
2023/02/05 12:52:12;;;;;;;7.87;6.40;;;4.90;99.90;;;;;;5093879;28;20428;-39
2023/02/05 12:54:50;;;;;;;7.53;5.80;;;4.70;99.90;;;;;;5094428;28;20463;-39
2023/02/05 12:57:21;;;;;;;8.13;5.57;;;4.60;99.90;;;;;;5094008;28;20419;-39
2023/02/05 12:59:54;;;;;;;8.47;6.30;;;4.50;99.90;;;;;;5094082;28;20499;-39
2023/02/05 13:02:39;;;;;;;16.07;10.70;;;4.60;99.90;;;;;;5094372;28;20788;-36
2023/02/05 13:05:46;;;;;;;9.60;8.70;;;4.60;99.90;;;;;;5092676;28;20422;-38
2023/02/05 13:08:17;;;;;;;10.97;9.40;;;4.60;99.90;;;;;;5048447;28;20834;-38
2023/02/05 13:10:53;;;;;;;7.93;6.20;;;4.50;99.90;;;;;;5093955;28;20547;-39